sensor_id;sensor_type;location;lat;lon;timestamp;pressure;altitude;pressure_sealevel;temperature;humidity
68226;BME280;55045;49.410;11.030;2023-02-28T00:00:27;98931.88;;;-3.46;100.00
68226;BME280;55045;49.410;11.030;2023-02-28T00:03:31;98928.38;;;-3.53;100.00
68226;BME280;55045;49.410;11.030;2023-02-28T00:06:38;98923.31;;;-3.08;100.00
68226;BME280;55045;49.410;11.030;2023-02-28T00:09:41;98925.91;;;-3.49;100.00
68226;BME280;55045;49.410;11.030;2023-02-28T00:12:44;98921.03;;;-3.39;100.00
68226;BME280;55045;49.410;11.030;2023-02-28T00:15:58;98914.81;;;-3.55;100.00
68226;BME280;55045;49.410;11.030;2023-02-28T00:19:01;98920.41;;;-3.68;100.00
68226;BME280;55045;49.410;11.030;2023-02-28T00:22:06;98919.22;;;-3.46;100.00
68226;BME280;55045;49.410;11.030;2023-02-28T00:25:11;98913.09;;;-3.56;100.00
68226;BME280;55045;49.410;11.030;2023-02-28T00:28:15;98923.16;;;-3.59;100.00
68226;BME280;55045;49.410;11.030;2023-02-28T00:31:18;98918.81;;;-3.65;100.00
68226;BME280;55045;49.410;11.030;2023-02-28T00:34:22;98908.06;;;-3.53;100.00
68226;BME280;55045;49.410;11.030;2023-02-28T00:37:28;98920.59;;;-3.61;100.00
68226;BME280;55045;49.410;11.030;2023-02-28T00:40:32;98926.25;;;-3.72;100.00
68226;BME280;55045;49.410;11.030;2023-02-28T00:43:37;98918.66;;;-3.72;100.00
68226;BME280;55045;49.410;11.030;2023-02-28T00:46:40;98920.59;;;-3.61;100.00
68226;BME280;55045;49.410;11.030;2023-02-28T00:49:44;98920.84;;;-3.49;100.00
68226;BME280;55045;49.410;11.030;2023-02-28T00:52:48;98924.69;;;-3.67;100.00
68226;BME280;55045;49.410;11.030;2023-02-28T00:55:51;98895.69;;;-3.79;100.00
68226;BME280;55045;49.410;11.030;2023-02-28T00:58:55;98909.59;;;-3.61;100.00
68226;BME280;55045;49.410;11.030;2023-02-28T01:01:58;98912.72;;;-3.74;100.00
68226;BME280;55045;49.410;11.030;2023-02-28T01:05:01;98905.09;;;-3.74;100.00
68226;BME280;55045;49.410;11.030;2023-02-28T01:08:06;98911.09;;;-3.69;100.00
68226;BME280;55045;49.410;11.030;2023-02-28T01:11:10;98897.69;;;-3.65;100.00
68226;BME280;55045;49.410;11.030;2023-02-28T01:14:16;98907.88;;;-3.62;100.00
68226;BME280;55045;49.410;11.030;2023-02-28T01:17:20;98903.78;;;-3.57;100.00
68226;BME280;55045;49.410;11.030;2023-02-28T01:20:23;98898.41;;;-3.71;100.00
68226;BME280;55045;49.410;11.030;2023-02-28T01:23:28;98899.41;;;-3.64;100.00
68226;BME280;55045;49.410;11.030;2023-02-28T01:26:31;98908.44;;;-3.35;100.00
68226;BME280;55045;49.410;11.030;2023-02-28T01:29:34;98897.59;;;-3.68;100.00
68226;BME280;55045;49.410;11.030;2023-02-28T01:32:38;98894.44;;;-3.58;100.00
68226;BME280;55045;49.410;11.030;2023-02-28T01:35:41;98891.78;;;-3.64;100.00
68226;BME280;55045;49.410;11.030;2023-02-28T01:38:46;98886.13;;;-3.51;100.00
68226;BME280;55045;49.410;11.030;2023-02-28T01:41:49;98887.84;;;-3.50;100.00
68226;BME280;55045;49.410;11.030;2023-02-28T01:45:04;98883.53;;;-3.56;100.00
68226;BME280;55045;49.410;11.030;2023-02-28T01:48:09;98882.56;;;-3.61;100.00
68226;BME280;55045;49.410;11.030;2023-02-28T01:51:16;98874.09;;;-3.61;100.00
68226;BME280;55045;49.410;11.030;2023-02-28T01:54:24;98884.22;;;-3.63;100.00
68226;BME280;55045;49.410;11.030;2023-02-28T01:57:32;98888.56;;;-3.57;100.00
68226;BME280;55045;49.410;11.030;2023-02-28T02:00:39;98878.25;;;-3.65;100.00
68226;BME280;55045;49.410;11.030;2023-02-28T02:03:45;98877.66;;;-3.53;100.00
68226;BME280;55045;49.410;11.030;2023-02-28T02:06:48;98877.31;;;-3.68;100.00
68226;BME280;55045;49.410;11.030;2023-02-28T02:10:00;98875.09;;;-3.55;100.00
68226;BME280;55045;49.410;11.030;2023-02-28T02:13:22;98877.47;;;-3.62;100.00
68226;BME280;55045;49.410;11.030;2023-02-28T02:16:44;98878.19;;;-3.68;100.00
68226;BME280;55045;49.410;11.030;2023-02-28T02:27:23;98869.06;;;-3.58;100.00
68226;BME280;55045;49.410;11.030;2023-02-28T02:34:46;98861.25;;;-3.69;100.00
68226;BME280;55045;49.410;11.030;2023-02-28T02:38:02;98859.53;;;-3.71;100.00
68226;BME280;55045;49.410;11.030;2023-02-28T02:41:12;98855.09;;;-3.82;100.00
68226;BME280;55045;49.410;11.030;2023-02-28T02:44:21;98855.97;;;-3.80;100.00
68226;BME280;55045;49.410;11.030;2023-02-28T02:47:29;98858.50;;;-3.80;100.00
68226;BME280;55045;49.410;11.030;2023-02-28T02:50:37;98870.19;;;-3.88;100.00
68226;BME280;55045;49.410;11.030;2023-02-28T02:53:45;98861.06;;;-3.78;100.00
68226;BME280;55045;49.410;11.030;2023-02-28T02:56:51;98865.28;;;-3.79;100.00
68226;BME280;55045;49.410;11.030;2023-02-28T02:59:56;98838.97;;;-3.87;100.00
68226;BME280;55045;49.410;11.030;2023-02-28T03:03:01;98844.03;;;-3.87;100.00
68226;BME280;55045;49.410;11.030;2023-02-28T03:06:06;98862.06;;;-3.71;100.00
68226;BME280;55045;49.410;11.030;2023-02-28T03:09:12;98861.47;;;-3.58;100.00
68226;BME280;55045;49.410;11.030;2023-02-28T03:12:15;98863.56;;;-3.81;100.00
68226;BME280;55045;49.410;11.030;2023-02-28T03:15:24;98860.91;;;-3.87;100.00
68226;BME280;55045;49.410;11.030;2023-02-28T03:18:36;98861.88;;;-3.81;100.00
68226;BME280;55045;49.410;11.030;2023-02-28T03:21:50;98861.69;;;-3.90;100.00
68226;BME280;55045;49.410;11.030;2023-02-28T03:25:02;98862.63;;;-3.86;100.00
68226;BME280;55045;49.410;11.030;2023-02-28T03:28:13;98872.84;;;-3.82;100.00
68226;BME280;55045;49.410;11.030;2023-02-28T03:31:21;98845.28;;;-4.07;100.00
68226;BME280;55045;49.410;11.030;2023-02-28T03:34:31;98871.16;;;-3.81;100.00
68226;BME280;55045;49.410;11.030;2023-02-28T03:37:40;98858.16;;;-3.98;100.00
68226;BME280;55045;49.410;11.030;2023-02-28T03:40:48;98877.06;;;-3.81;100.00
68226;BME280;55045;49.410;11.030;2023-02-28T03:43:55;98867.59;;;-3.89;100.00
68226;BME280;55045;49.410;11.030;2023-02-28T03:47:03;98877.03;;;-3.84;100.00
68226;BME280;55045;49.410;11.030;2023-02-28T03:50:07;98876.88;;;-3.90;100.00
68226;BME280;55045;49.410;11.030;2023-02-28T03:53:16;98862.91;;;-3.71;100.00
68226;BME280;55045;49.410;11.030;2023-02-28T03:56:24;98876.81;;;-3.93;100.00
68226;BME280;55045;49.410;11.030;2023-02-28T03:59:34;98877.81;;;-3.86;100.00
68226;BME280;55045;49.410;11.030;2023-02-28T04:02:40;98876.88;;;-3.90;100.00
68226;BME280;55045;49.410;11.030;2023-02-28T04:05:50;98873.66;;;-3.83;100.00
68226;BME280;55045;49.410;11.030;2023-02-28T04:08:55;98877.09;;;-3.79;100.00
68226;BME280;55045;49.410;11.030;2023-02-28T04:11:58;98879.16;;;-3.61;100.00
68226;BME280;55045;49.410;11.030;2023-02-28T04:15:01;98881.94;;;-3.91;100.00
68226;BME280;55045;49.410;11.030;2023-02-28T04:18:05;98878.03;;;-3.77;100.00
68226;BME280;55045;49.410;11.030;2023-02-28T04:21:09;98887.81;;;-3.92;100.00
68226;BME280;55045;49.410;11.030;2023-02-28T04:24:16;98875.63;;;-3.69;100.00
68226;BME280;55045;49.410;11.030;2023-02-28T04:27:19;98888.63;;;-3.95;100.00
68226;BME280;55045;49.410;11.030;2023-02-28T04:34:26;98877.50;;;-4.00;100.00
68226;BME280;55045;49.410;11.030;2023-02-28T04:37:29;98882.09;;;-3.84;100.00
68226;BME280;55045;49.410;11.030;2023-02-28T04:40:36;98888.72;;;-3.89;100.00
68226;BME280;55045;49.410;11.030;2023-02-28T04:43:40;98877.50;;;-3.59;100.00
68226;BME280;55045;49.410;11.030;2023-02-28T04:46:43;98889.66;;;-3.87;100.00
68226;BME280;55045;49.410;11.030;2023-02-28T04:49:48;98875.38;;;-3.82;100.00
68226;BME280;55045;49.410;11.030;2023-02-28T04:52:51;98872.81;;;-3.83;100.00
68226;BME280;55045;49.410;11.030;2023-02-28T04:55:55;98868.66;;;-3.80;100.00
68226;BME280;55045;49.410;11.030;2023-02-28T04:59:01;98808.66;;;-4.21;100.00
68226;BME280;55045;49.410;11.030;2023-02-28T05:02:04;98880.63;;;-3.72;100.00
68226;BME280;55045;49.410;11.030;2023-02-28T05:05:10;98879.75;;;-3.74;100.00
68226;BME280;55045;49.410;11.030;2023-02-28T05:08:13;98884.78;;;-3.78;100.00
68226;BME280;55045;49.410;11.030;2023-02-28T05:11:18;98891.81;;;-3.63;100.00
68226;BME280;55045;49.410;11.030;2023-02-28T05:14:22;98884.78;;;-3.78;100.00
68226;BME280;55045;49.410;11.030;2023-02-28T05:17:25;98889.19;;;-3.67;100.00
68226;BME280;55045;49.410;11.030;2023-02-28T05:20:30;98895.00;;;-3.73;100.00
68226;BME280;55045;49.410;11.030;2023-02-28T05:23:33;98904.44;;;-3.66;100.00
68226;BME280;55045;49.410;11.030;2023-02-28T05:26:38;98895.69;;;-3.79;100.00
68226;BME280;55045;49.410;11.030;2023-02-28T05:29:42;98899.47;;;-3.60;100.00
68226;BME280;55045;49.410;11.030;2023-02-28T05:32:50;98900.66;;;-3.85;100.00
68226;BME280;55045;49.410;11.030;2023-02-28T05:35:55;98898.94;;;-3.86;100.00
68226;BME280;55045;49.410;11.030;2023-02-28T05:38:58;98878.34;;;-4.01;100.00
68226;BME280;55045;49.410;11.030;2023-02-28T05:42:02;98902.31;;;-3.87;100.00
68226;BME280;55045;49.410;11.030;2023-02-28T05:45:06;98879.06;;;-4.08;100.00
68226;BME280;55045;49.410;11.030;2023-02-28T05:48:10;98902.38;;;-3.84;100.00
68226;BME280;55045;49.410;11.030;2023-02-28T05:51:14;98902.25;;;-3.88;100.00
68226;BME280;55045;49.410;11.030;2023-02-28T05:54:18;98893.88;;;-3.86;100.00
68226;BME280;55045;49.410;11.030;2023-02-28T05:57:21;98898.88;;;-3.89;100.00
68226;BME280;55045;49.410;11.030;2023-02-28T06:00:25;98903.09;;;-3.89;100.00
68226;BME280;55045;49.410;11.030;2023-02-28T06:03:29;98902.19;;;-3.91;100.00
68226;BME280;55045;49.410;11.030;2023-02-28T06:06:34;98908.38;;;-3.79;100.00
68226;BME280;55045;49.410;11.030;2023-02-28T06:09:38;98913.53;;;-3.75;100.00
68226;BME280;55045;49.410;11.030;2023-02-28T06:12:42;98918.34;;;-3.88;100.00
68226;BME280;55045;49.410;11.030;2023-02-28T06:15:45;98896.94;;;-4.00;100.00
68226;BME280;55045;49.410;11.030;2023-02-28T06:18:49;98913.38;;;-3.83;100.00
68226;BME280;55045;49.410;11.030;2023-02-28T06:21:54;98919.53;;;-3.70;100.00
68226;BME280;55045;49.410;11.030;2023-02-28T06:24:58;98915.25;;;-3.74;100.00
68226;BME280;55045;49.410;11.030;2023-02-28T06:28:01;98916.19;;;-3.69;100.00
68226;BME280;55045;49.410;11.030;2023-02-28T06:31:06;98921.06;;;-3.79;100.00
68226;BME280;55045;49.410;11.030;2023-02-28T06:34:11;98926.34;;;-3.68;100.00
68226;BME280;55045;49.410;11.030;2023-02-28T06:37:15;98928.16;;;-3.62;100.00
68226;BME280;55045;49.410;11.030;2023-02-28T06:40:19;98925.13;;;-3.46;100.00
68226;BME280;55045;49.410;11.030;2023-02-28T06:43:22;98929.88;;;-3.61;100.00
68226;BME280;55045;49.410;11.030;2023-02-28T06:46:26;98933.31;;;-3.58;100.00
68226;BME280;55045;49.410;11.030;2023-02-28T06:49:29;98920.50;;;-3.65;100.00
68226;BME280;55045;49.410;11.030;2023-02-28T06:52:34;98930.16;;;-3.48;100.00
68226;BME280;55045;49.410;11.030;2023-02-28T06:55:39;98926.94;;;-3.39;100.00
68226;BME280;55045;49.410;11.030;2023-02-28T06:58:46;98932.94;;;-3.37;100.00
68226;BME280;55045;49.410;11.030;2023-02-28T07:01:53;98938.09;;;-3.32;100.00
68226;BME280;55045;49.410;11.030;2023-02-28T07:04:56;98939.00;;;-3.29;100.00
68226;BME280;55045;49.410;11.030;2023-02-28T07:08:01;98935.81;;;-3.19;100.00
68226;BME280;55045;49.410;11.030;2023-02-28T07:11:05;98940.59;;;-2.88;100.00
68226;BME280;55045;49.410;11.030;2023-02-28T07:14:08;98911.06;;;-3.30;100.00
68226;BME280;55045;49.410;11.030;2023-02-28T07:17:12;98948.03;;;-2.99;100.00
68226;BME280;55045;49.410;11.030;2023-02-28T07:20:15;98949.22;;;-2.80;100.00
68226;BME280;55045;49.410;11.030;2023-02-28T07:23:20;98954.16;;;-2.88;100.00
68226;BME280;55045;49.410;11.030;2023-02-28T07:26:24;98948.31;;;-2.84;100.00
68226;BME280;55045;49.410;11.030;2023-02-28T07:29:27;98960.56;;;-2.62;100.00
68226;BME280;55045;49.410;11.030;2023-02-28T07:32:30;98947.16;;;-2.54;100.00
68226;BME280;55045;49.410;11.030;2023-02-28T07:35:34;98946.47;;;-2.44;100.00
68226;BME280;55045;49.410;11.030;2023-02-28T07:38:38;98958.22;;;-2.49;100.00
68226;BME280;55045;49.410;11.030;2023-02-28T07:41:42;98950.78;;;-2.39;100.00
68226;BME280;55045;49.410;11.030;2023-02-28T07:44:46;98955.44;;;-2.13;100.00
68226;BME280;55045;49.410;11.030;2023-02-28T07:47:49;98953.06;;;-2.03;100.00
68226;BME280;55045;49.410;11.030;2023-02-28T07:50:54;98952.97;;;-2.09;100.00
68226;BME280;55045;49.410;11.030;2023-02-28T07:53:59;98953.50;;;-1.72;100.00
68226;BME280;55045;49.410;11.030;2023-02-28T07:57:02;98938.59;;;-1.45;100.00
68226;BME280;55045;49.410;11.030;2023-02-28T08:00:08;98952.72;;;-1.00;100.00
68226;BME280;55045;49.410;11.030;2023-02-28T08:03:15;98935.91;;;-0.82;100.00
68226;BME280;55045;49.410;11.030;2023-02-28T08:06:21;98960.41;;;-0.95;100.00
68226;BME280;55045;49.410;11.030;2023-02-28T08:09:26;98959.53;;;-0.96;100.00
68226;BME280;55045;49.410;11.030;2023-02-28T08:12:29;98957.28;;;-0.71;100.00
68226;BME280;55045;49.410;11.030;2023-02-28T08:15:32;98951.44;;;-0.61;100.00
68226;BME280;55045;49.410;11.030;2023-02-28T08:18:36;98955.06;;;-0.33;100.00
68226;BME280;55045;49.410;11.030;2023-02-28T08:21:39;98948.16;;;-0.48;100.00
68226;BME280;55045;49.410;11.030;2023-02-28T08:24:44;98953.44;;;-0.25;100.00
68226;BME280;55045;49.410;11.030;2023-02-28T08:27:47;98956.81;;;-0.27;100.00
68226;BME280;55045;49.410;11.030;2023-02-28T08:30:53;98952.59;;;-0.22;100.00
68226;BME280;55045;49.410;11.030;2023-02-28T08:33:56;98952.41;;;-0.45;100.00
68226;BME280;55045;49.410;11.030;2023-02-28T08:37:00;98948.56;;;0.04;100.00
68226;BME280;55045;49.410;11.030;2023-02-28T08:40:07;98948.59;;;0.10;100.00
68226;BME280;55045;49.410;11.030;2023-02-28T08:43:11;98955.22;;;-0.16;100.00
68226;BME280;55045;49.410;11.030;2023-02-28T08:46:14;98943.66;;;0.32;100.00
68226;BME280;55045;49.410;11.030;2023-02-28T08:49:17;98919.38;;;-0.35;100.00
68226;BME280;55045;49.410;11.030;2023-02-28T08:52:21;98954.59;;;0.17;100.00
68226;BME280;55045;49.410;11.030;2023-02-28T08:55:25;98953.81;;;0.28;100.00
68226;BME280;55045;49.410;11.030;2023-02-28T08:58:29;98956.41;;;0.33;100.00
68226;BME280;55045;49.410;11.030;2023-02-28T09:01:32;98945.94;;;-0.08;100.00
68226;BME280;55045;49.410;11.030;2023-02-28T09:04:35;98960.38;;;-0.07;100.00
68226;BME280;55045;49.410;11.030;2023-02-28T09:07:39;98952.72;;;-0.09;100.00
68226;BME280;55045;49.410;11.030;2023-02-28T09:10:44;98956.13;;;-0.07;100.00
68226;BME280;55045;49.410;11.030;2023-02-28T09:13:47;98946.91;;;0.12;100.00
68226;BME280;55045;49.410;11.030;2023-02-28T09:16:53;98948.69;;;0.25;100.00
68226;BME280;55045;49.410;11.030;2023-02-28T09:19:56;98942.53;;;-0.04;100.00
68226;BME280;55045;49.410;11.030;2023-02-28T09:23:00;98946.16;;;0.27;100.00
68226;BME280;55045;49.410;11.030;2023-02-28T09:26:04;98942.00;;;0.43;100.00
68226;BME280;55045;49.410;11.030;2023-02-28T09:29:07;98939.47;;;0.50;100.00
68226;BME280;55045;49.410;11.030;2023-02-28T09:32:11;98945.34;;;0.33;100.00
68226;BME280;55045;49.410;11.030;2023-02-28T09:35:15;98939.47;;;0.47;100.00
68226;BME280;55045;49.410;11.030;2023-02-28T09:38:18;98942.91;;;0.58;100.00
68226;BME280;55045;49.410;11.030;2023-02-28T09:41:24;98937.81;;;0.52;100.00
68226;BME280;55045;49.410;11.030;2023-02-28T09:44:33;98931.91;;;0.69;100.00
68226;BME280;55045;49.410;11.030;2023-02-28T09:47:42;98940.50;;;0.84;100.00
68226;BME280;55045;49.410;11.030;2023-02-28T09:50:49;98948.97;;;0.80;100.00
68226;BME280;55045;49.410;11.030;2023-02-28T09:53:54;98953.28;;;0.92;100.00
68226;BME280;55045;49.410;11.030;2023-02-28T09:57:08;98954.22;;;1.29;100.00
68226;BME280;55045;49.410;11.030;2023-02-28T10:00:15;98947.38;;;1.22;100.00
68226;BME280;55045;49.410;11.030;2023-02-28T10:03:28;98955.13;;;1.71;100.00
68226;BME280;55045;49.410;11.030;2023-02-28T10:06:36;98944.91;;;1.66;100.00
68226;BME280;55045;49.410;11.030;2023-02-28T10:09:42;98946.56;;;1.43;98.95
68226;BME280;55045;49.410;11.030;2023-02-28T10:12:52;98950.00;;;1.40;100.00
68226;BME280;55045;49.410;11.030;2023-02-28T10:15:59;98950.88;;;1.64;99.78
68226;BME280;55045;49.410;11.030;2023-02-28T10:19:08;98944.91;;;1.68;97.74
68226;BME280;55045;49.410;11.030;2023-02-28T10:22:19;98952.53;;;1.30;97.85
68226;BME280;55045;49.410;11.030;2023-02-28T10:25:26;98948.34;;;1.75;97.21
68226;BME280;55045;49.410;11.030;2023-02-28T10:28:30;98943.22;;;1.67;96.59
68226;BME280;55045;49.410;11.030;2023-02-28T10:34:25;98921.88;;;1.25;96.23
68226;BME280;55045;49.410;11.030;2023-02-28T10:37:29;98932.09;;;1.37;100.00
68226;BME280;55045;49.410;11.030;2023-02-28T10:40:34;98937.19;;;1.28;97.26
68226;BME280;55045;49.410;11.030;2023-02-28T10:43:39;98923.53;;;1.08;97.33
68226;BME280;55045;49.410;11.030;2023-02-28T10:46:43;98949.13;;;1.26;96.77
68226;BME280;55045;49.410;11.030;2023-02-28T10:49:49;98946.59;;;1.37;95.43
68226;BME280;55045;49.410;11.030;2023-02-28T10:52:54;98932.09;;;2.03;95.73
68226;BME280;55045;49.410;11.030;2023-02-28T10:55:59;98942.34;;;2.01;94.31
68226;BME280;55045;49.410;11.030;2023-02-28T10:59:26;98943.22;;;2.05;96.03
68226;BME280;55045;49.410;11.030;2023-02-28T11:02:33;98942.34;;;1.69;94.30
68226;BME280;55045;49.410;11.030;2023-02-28T11:05:46;98937.25;;;1.97;92.27
68226;BME280;55045;49.410;11.030;2023-02-28T11:08:52;98938.94;;;1.87;92.45
68226;BME280;55045;49.410;11.030;2023-02-28T11:11:56;98926.13;;;2.12;92.38
68226;BME280;55045;49.410;11.030;2023-02-28T11:15:02;98931.25;;;2.16;92.07
68226;BME280;55045;49.410;11.030;2023-02-28T11:18:20;98927.78;;;2.33;90.62
68226;BME280;55045;49.410;11.030;2023-02-28T11:21:27;98932.13;;;2.08;90.92
68226;BME280;55045;49.410;11.030;2023-02-28T11:24:35;98934.63;;;2.23;91.14
68226;BME280;55045;49.410;11.030;2023-02-28T11:27:44;98924.34;;;2.41;89.37
68226;BME280;55045;49.410;11.030;2023-02-28T11:30:59;98929.47;;;2.41;90.19
68226;BME280;55045;49.410;11.030;2023-02-28T11:34:23;98932.09;;;2.21;88.56
68226;BME280;55045;49.410;11.030;2023-02-28T11:37:31;98915.78;;;2.59;89.17
68226;BME280;55045;49.410;11.030;2023-02-28T11:40:41;98927.72;;;2.52;88.03
68226;BME280;55045;49.410;11.030;2023-02-28T11:43:58;98917.41;;;2.77;88.57
68226;BME280;55045;49.410;11.030;2023-02-28T11:47:08;98920.91;;;2.57;88.04
68226;BME280;55045;49.410;11.030;2023-02-28T11:50:26;98898.50;;;2.96;87.85
68226;BME280;55045;49.410;11.030;2023-02-28T11:53:52;98918.22;;;2.89;87.83
68226;BME280;55045;49.410;11.030;2023-02-28T11:57:13;98914.84;;;2.74;90.08
68226;BME280;55045;49.410;11.030;2023-02-28T12:00:31;98915.56;;;3.08;89.67
68226;BME280;55045;49.410;11.030;2023-02-28T12:03:44;98910.47;;;2.99;89.23
68226;BME280;55045;49.410;11.030;2023-02-28T12:06:52;98909.72;;;2.77;89.55
68226;BME280;55045;49.410;11.030;2023-02-28T12:10:06;98917.44;;;2.63;87.17
68226;BME280;55045;49.410;11.030;2023-02-28T12:13:18;98916.56;;;2.72;87.06
68226;BME280;55045;49.410;11.030;2023-02-28T12:16:36;98920.09;;;2.48;86.14
68226;BME280;55045;49.410;11.030;2023-02-28T12:19:45;98900.28;;;2.83;86.95
68226;BME280;55045;49.410;11.030;2023-02-28T12:22:59;98900.34;;;2.71;86.13
68226;BME280;55045;49.410;11.030;2023-02-28T12:26:12;98901.75;;;3.29;85.72
68226;BME280;55045;49.410;11.030;2023-02-28T12:29:21;98897.69;;;2.97;87.76
68226;BME280;55045;49.410;11.030;2023-02-28T12:32:30;98904.59;;;2.74;86.72
68226;BME280;55045;49.410;11.030;2023-02-28T12:35:37;98896.09;;;2.66;85.51
68226;BME280;55045;49.410;11.030;2023-02-28T12:38:44;98893.28;;;3.17;85.19
68226;BME280;55045;49.410;11.030;2023-02-28T12:41:53;98885.38;;;3.48;82.74
68226;BME280;55045;49.410;11.030;2023-02-28T12:44:59;98880.22;;;3.51;84.38
68226;BME280;55045;49.410;11.030;2023-02-28T12:48:08;98885.38;;;3.48;83.17
68226;BME280;55045;49.410;11.030;2023-02-28T12:51:16;98880.50;;;3.11;83.13
68226;BME280;55045;49.410;11.030;2023-02-28T12:54:24;98878.06;;;2.88;83.46
68226;BME280;55045;49.410;11.030;2023-02-28T12:57:35;98884.75;;;3.18;85.57
68226;BME280;55045;49.410;11.030;2023-02-28T13:01:02;98860.94;;;2.95;83.19
68226;BME280;55045;49.410;11.030;2023-02-28T13:04:34;98887.25;;;3.28;80.64
68226;BME280;55045;49.410;11.030;2023-02-28T13:08:02;98875.50;;;2.90;84.17
68226;BME280;55045;49.410;11.030;2023-02-28T13:11:07;98878.75;;;3.20;82.10
68226;BME280;55045;49.410;11.030;2023-02-28T13:14:26;98883.59;;;3.59;82.33
68226;BME280;55045;49.410;11.030;2023-02-28T13:17:32;98874.34;;;3.34;83.15
68226;BME280;55045;49.410;11.030;2023-02-28T13:20:37;98884.88;;;2.97;83.35
68226;BME280;55045;49.410;11.030;2023-02-28T13:23:59;98885.59;;;3.16;83.01
68226;BME280;55045;49.410;11.030;2023-02-28T13:31:05;98881.72;;;3.75;82.79
68226;BME280;55045;49.410;11.030;2023-02-28T13:34:14;98877.69;;;3.48;82.01
68226;BME280;55045;49.410;11.030;2023-02-28T13:37:36;98886.28;;;3.41;82.88
68226;BME280;55045;49.410;11.030;2023-02-28T13:40:40;98893.13;;;3.42;82.83
68226;BME280;55045;49.410;11.030;2023-02-28T13:44:02;98888.81;;;3.44;83.59
68226;BME280;55045;49.410;11.030;2023-02-28T13:47:28;98882.13;;;3.25;83.71
68226;BME280;55045;49.410;11.030;2023-02-28T13:50:34;98884.66;;;3.26;83.73
68226;BME280;55045;49.410;11.030;2023-02-28T13:53:58;98881.97;;;3.46;82.95
68226;BME280;55045;49.410;11.030;2023-02-28T13:57:13;98884.59;;;3.38;82.91
68226;BME280;55045;49.410;11.030;2023-02-28T14:00:30;98879.66;;;3.06;83.89
68226;BME280;55045;49.410;11.030;2023-02-28T14:03:52;98869.38;;;3.17;84.63
68226;BME280;55045;49.410;11.030;2023-02-28T14:07:01;98876.91;;;3.37;84.51
68226;BME280;55045;49.410;11.030;2023-02-28T14:10:07;98869.38;;;3.12;84.77
68226;BME280;55045;49.410;11.030;2023-02-28T14:16:39;98870.13;;;3.30;85.67
68226;BME280;55045;49.410;11.030;2023-02-28T14:19:46;98866.63;;;3.40;85.36
68226;BME280;55045;49.410;11.030;2023-02-28T14:22:56;98856.25;;;3.55;87.41
68226;BME280;55045;49.410;11.030;2023-02-28T14:26:13;98829.22;;;3.17;84.69
68226;BME280;55045;49.410;11.030;2023-02-28T14:29:38;98862.41;;;3.33;87.35
68226;BME280;55045;49.410;11.030;2023-02-28T14:32:50;98870.13;;;3.30;85.97
68226;BME280;55045;49.410;11.030;2023-02-28T14:36:06;98851.19;;;3.46;84.40
68226;BME280;55045;49.410;11.030;2023-02-28T14:39:13;98843.66;;;3.25;84.45
68226;BME280;55045;49.410;11.030;2023-02-28T14:42:31;98869.28;;;3.26;85.35
68226;BME280;55045;49.410;11.030;2023-02-28T14:45:35;98865.16;;;3.07;85.87
68226;BME280;55045;49.410;11.030;2023-02-28T14:48:40;98859.81;;;3.34;85.94
68226;BME280;55045;49.410;11.030;2023-02-28T14:51:45;98863.34;;;3.21;87.37
68226;BME280;55045;49.410;11.030;2023-02-28T14:54:52;98861.66;;;3.18;88.69
68226;BME280;55045;49.410;11.030;2023-02-28T14:57:57;98858.22;;;3.23;89.81
68226;BME280;55045;49.410;11.030;2023-02-28T15:01:02;98860.84;;;3.13;89.41
68226;BME280;55045;49.410;11.030;2023-02-28T15:04:18;98852.25;;;3.19;88.48
68226;BME280;55045;49.410;11.030;2023-02-28T15:07:26;98853.88;;;3.31;88.56
68226;BME280;55045;49.410;11.030;2023-02-28T15:10:33;98848.06;;;3.09;87.85
68226;BME280;55045;49.410;11.030;2023-02-28T15:13:38;98834.34;;;3.17;89.35
68226;BME280;55045;49.410;11.030;2023-02-28T15:16:44;98847.09;;;3.24;89.78
68226;BME280;55045;49.410;11.030;2023-02-28T15:19:52;98857.53;;;2.98;89.97
68226;BME280;55045;49.410;11.030;2023-02-28T15:22:57;98846.19;;;3.31;89.74
68226;BME280;55045;49.410;11.030;2023-02-28T15:26:02;98854.78;;;3.22;89.85
68226;BME280;55045;49.410;11.030;2023-02-28T15:29:10;98853.13;;;3.18;89.79
68226;BME280;55045;49.410;11.030;2023-02-28T15:32:27;98851.22;;;3.41;89.10
68226;BME280;55045;49.410;11.030;2023-02-28T15:35:32;98858.13;;;3.38;88.42
68226;BME280;55045;49.410;11.030;2023-02-28T15:38:37;98858.25;;;3.15;91.33
68226;BME280;55045;49.410;11.030;2023-02-28T15:41:40;98862.47;;;3.22;92.88
68226;BME280;55045;49.410;11.030;2023-02-28T15:44:44;98859.91;;;3.24;92.41
68226;BME280;55045;49.410;11.030;2023-02-28T15:47:47;98847.03;;;3.33;92.22
68226;BME280;55045;49.410;11.030;2023-02-28T15:50:52;98854.84;;;3.14;90.82
68226;BME280;55045;49.410;11.030;2023-02-28T15:54:04;98859.13;;;3.12;91.56
68226;BME280;55045;49.410;11.030;2023-02-28T15:57:13;98856.56;;;3.12;90.60
68226;BME280;55045;49.410;11.030;2023-02-28T16:00:21;98859.28;;;2.88;92.38
68226;BME280;55045;49.410;11.030;2023-02-28T16:03:26;98861.84;;;2.91;95.04
68226;BME280;55045;49.410;11.030;2023-02-28T16:06:39;98869.66;;;2.67;94.40
68226;BME280;55045;49.410;11.030;2023-02-28T16:09:45;98846.75;;;2.27;94.59
68226;BME280;55045;49.410;11.030;2023-02-28T16:12:49;98866.25;;;2.62;95.59
68226;BME280;55045;49.410;11.030;2023-02-28T16:15:52;98871.38;;;2.54;96.15
68226;BME280;55045;49.410;11.030;2023-02-28T16:18:56;98872.34;;;2.27;98.44
68226;BME280;55045;49.410;11.030;2023-02-28T16:21:59;98875.75;;;2.29;97.80
68226;BME280;55045;49.410;11.030;2023-02-28T16:25:05;98850.22;;;2.11;97.27
68226;BME280;55045;49.410;11.030;2023-02-28T16:28:17;98876.63;;;2.20;97.24
68226;BME280;55045;49.410;11.030;2023-02-28T16:34:25;98880.06;;;2.02;97.08
68226;BME280;55045;49.410;11.030;2023-02-28T16:37:29;98887.75;;;2.07;97.76
68226;BME280;55045;49.410;11.030;2023-02-28T16:40:34;98890.31;;;1.93;100.00
68226;BME280;55045;49.410;11.030;2023-02-28T16:43:38;98888.63;;;1.91;100.00